sensor_id;sensor_type;location;lat;lon;timestamp;P1;durP1;ratioP1;P2;durP2;ratioP2
10517;SDS011;5307;42.548;22.968;2023-05-28T00:00:57;4.78;;;4.10;;
10517;SDS011;5307;42.548;22.968;2023-05-28T00:03:26;4.20;;;3.80;;
10517;SDS011;5307;42.548;22.968;2023-05-28T00:05:52;4.82;;;3.47;;
10517;SDS011;5307;42.548;22.968;2023-05-28T00:08:21;4.00;;;3.35;;
10517;SDS011;5307;42.548;22.968;2023-05-28T00:10:47;4.80;;;4.28;;
10517;SDS011;5307;42.548;22.968;2023-05-28T00:13:14;4.88;;;4.30;;
10517;SDS011;5307;42.548;22.968;2023-05-28T00:15:42;5.38;;;4.03;;
10517;SDS011;5307;42.548;22.968;2023-05-28T00:18:10;6.10;;;4.28;;
10517;SDS011;5307;42.548;22.968;2023-05-28T00:20:39;4.43;;;3.95;;
10517;SDS011;5307;42.548;22.968;2023-05-28T00:23:06;8.13;;;3.75;;
10517;SDS011;5307;42.548;22.968;2023-05-28T00:25:34;5.03;;;3.53;;
10517;SDS011;5307;42.548;22.968;2023-05-28T00:28:01;4.43;;;3.75;;
10517;SDS011;5307;42.548;22.968;2023-05-28T00:30:28;5.05;;;3.83;;
10517;SDS011;5307;42.548;22.968;2023-05-28T00:32:55;4.45;;;3.70;;
10517;SDS011;5307;42.548;22.968;2023-05-28T00:35:23;4.68;;;4.05;;
10517;SDS011;5307;42.548;22.968;2023-05-28T00:37:50;4.60;;;3.42;;
10517;SDS011;5307;42.548;22.968;2023-05-28T00:40:17;4.00;;;3.60;;
10517;SDS011;5307;42.548;22.968;2023-05-28T00:42:46;6.90;;;4.22;;
10517;SDS011;5307;42.548;22.968;2023-05-28T00:45:12;5.43;;;3.88;;
10517;SDS011;5307;42.548;22.968;2023-05-28T00:47:39;4.38;;;3.95;;
10517;SDS011;5307;42.548;22.968;2023-05-28T00:50:07;4.15;;;3.53;;
10517;SDS011;5307;42.548;22.968;2023-05-28T00:52:35;4.20;;;3.78;;
10517;SDS011;5307;42.548;22.968;2023-05-28T00:55:03;7.30;;;3.92;;
10517;SDS011;5307;42.548;22.968;2023-05-28T00:57:38;3.95;;;3.58;;
10517;SDS011;5307;42.548;22.968;2023-05-28T01:00:06;4.00;;;3.60;;
10517;SDS011;5307;42.548;22.968;2023-05-28T01:02:34;5.80;;;4.00;;
10517;SDS011;5307;42.548;22.968;2023-05-28T01:05:02;5.47;;;3.97;;
10517;SDS011;5307;42.548;22.968;2023-05-28T01:07:29;3.80;;;3.20;;
10517;SDS011;5307;42.548;22.968;2023-05-28T01:09:56;3.53;;;3.22;;
10517;SDS011;5307;42.548;22.968;2023-05-28T01:12:23;4.18;;;3.63;;
10517;SDS011;5307;42.548;22.968;2023-05-28T01:14:51;4.80;;;3.90;;
10517;SDS011;5307;42.548;22.968;2023-05-28T01:17:20;6.35;;;3.95;;
10517;SDS011;5307;42.548;22.968;2023-05-28T01:19:48;4.40;;;3.70;;
10517;SDS011;5307;42.548;22.968;2023-05-28T01:22:15;5.82;;;3.90;;
10517;SDS011;5307;42.548;22.968;2023-05-28T01:24:47;5.03;;;4.47;;
10517;SDS011;5307;42.548;22.968;2023-05-28T01:27:16;4.80;;;3.65;;
10517;SDS011;5307;42.548;22.968;2023-05-28T01:29:44;4.57;;;3.95;;
10517;SDS011;5307;42.548;22.968;2023-05-28T01:32:10;4.75;;;3.80;;
10517;SDS011;5307;42.548;22.968;2023-05-28T01:34:37;4.60;;;3.78;;
10517;SDS011;5307;42.548;22.968;2023-05-28T01:37:06;6.05;;;4.10;;
10517;SDS011;5307;42.548;22.968;2023-05-28T01:39:38;6.50;;;4.50;;
10517;SDS011;5307;42.548;22.968;2023-05-28T01:42:11;5.40;;;3.65;;
10517;SDS011;5307;42.548;22.968;2023-05-28T01:44:38;5.82;;;3.80;;
10517;SDS011;5307;42.548;22.968;2023-05-28T01:47:08;4.18;;;3.78;;
10517;SDS011;5307;42.548;22.968;2023-05-28T01:49:36;4.93;;;4.20;;
10517;SDS011;5307;42.548;22.968;2023-05-28T01:52:04;4.68;;;4.03;;
10517;SDS011;5307;42.548;22.968;2023-05-28T01:54:32;5.32;;;3.83;;
10517;SDS011;5307;42.548;22.968;2023-05-28T01:56:59;4.55;;;4.00;;
10517;SDS011;5307;42.548;22.968;2023-05-28T01:59:28;6.15;;;4.50;;
10517;SDS011;5307;42.548;22.968;2023-05-28T02:01:55;4.70;;;3.97;;
10517;SDS011;5307;42.548;22.968;2023-05-28T02:04:22;4.43;;;3.72;;
10517;SDS011;5307;42.548;22.968;2023-05-28T02:06:48;4.43;;;3.92;;
10517;SDS011;5307;42.548;22.968;2023-05-28T02:09:15;4.20;;;3.80;;
10517;SDS011;5307;42.548;22.968;2023-05-28T02:11:42;4.82;;;4.32;;
10517;SDS011;5307;42.548;22.968;2023-05-28T02:14:09;5.75;;;4.22;;
10517;SDS011;5307;42.548;22.968;2023-05-28T02:16:40;4.60;;;3.97;;
10517;SDS011;5307;42.548;22.968;2023-05-28T02:19:09;3.85;;;3.42;;
10517;SDS011;5307;42.548;22.968;2023-05-28T02:21:36;3.72;;;3.35;;
10517;SDS011;5307;42.548;22.968;2023-05-28T02:24:03;4.53;;;4.13;;
10517;SDS011;5307;42.548;22.968;2023-05-28T02:26:33;4.25;;;3.80;;
10517;SDS011;5307;42.548;22.968;2023-05-28T02:29:00;7.78;;;4.30;;
10517;SDS011;5307;42.548;22.968;2023-05-28T02:31:27;4.90;;;4.40;;
10517;SDS011;5307;42.548;22.968;2023-05-28T02:33:55;4.18;;;3.80;;
10517;SDS011;5307;42.548;22.968;2023-05-28T02:36:22;6.00;;;4.40;;
10517;SDS011;5307;42.548;22.968;2023-05-28T02:38:49;6.38;;;4.05;;
10517;SDS011;5307;42.548;22.968;2023-05-28T02:41:16;7.22;;;4.43;;
10517;SDS011;5307;42.548;22.968;2023-05-28T02:43:43;5.43;;;4.38;;
10517;SDS011;5307;42.548;22.968;2023-05-28T02:46:10;5.10;;;4.50;;
10517;SDS011;5307;42.548;22.968;2023-05-28T02:48:37;4.93;;;4.38;;
10517;SDS011;5307;42.548;22.968;2023-05-28T02:51:05;9.57;;;4.25;;
10517;SDS011;5307;42.548;22.968;2023-05-28T02:53:32;4.82;;;4.32;;
10517;SDS011;5307;42.548;22.968;2023-05-28T02:55:58;6.18;;;4.60;;
10517;SDS011;5307;42.548;22.968;2023-05-28T02:58:25;5.43;;;4.60;;
10517;SDS011;5307;42.548;22.968;2023-05-28T03:00:53;7.53;;;4.50;;
10517;SDS011;5307;42.548;22.968;2023-05-28T03:03:20;8.88;;;4.95;;
10517;SDS011;5307;42.548;22.968;2023-05-28T03:05:47;5.80;;;3.90;;
10517;SDS011;5307;42.548;22.968;2023-05-28T03:08:15;7.43;;;4.40;;
10517;SDS011;5307;42.548;22.968;2023-05-28T03:10:42;5.53;;;4.53;;
10517;SDS011;5307;42.548;22.968;2023-05-28T03:13:09;4.90;;;4.40;;
10517;SDS011;5307;42.548;22.968;2023-05-28T03:15:36;6.75;;;4.70;;
10517;SDS011;5307;42.548;22.968;2023-05-28T03:18:02;8.15;;;4.68;;
10517;SDS011;5307;42.548;22.968;2023-05-28T03:20:29;6.38;;;4.93;;
10517;SDS011;5307;42.548;22.968;2023-05-28T03:22:56;5.80;;;4.07;;
10517;SDS011;5307;42.548;22.968;2023-05-28T03:25:25;7.65;;;4.55;;
10517;SDS011;5307;42.548;22.968;2023-05-28T03:27:52;11.20;;;4.95;;
10517;SDS011;5307;42.548;22.968;2023-05-28T03:30:19;6.50;;;4.80;;
10517;SDS011;5307;42.548;22.968;2023-05-28T03:32:46;10.60;;;5.22;;
10517;SDS011;5307;42.548;22.968;2023-05-28T03:35:13;7.35;;;5.07;;
10517;SDS011;5307;42.548;22.968;2023-05-28T03:37:40;8.05;;;5.25;;
10517;SDS011;5307;42.548;22.968;2023-05-28T03:40:07;5.85;;;4.97;;
10517;SDS011;5307;42.548;22.968;2023-05-28T03:42:36;5.88;;;4.93;;
10517;SDS011;5307;42.548;22.968;2023-05-28T03:45:03;7.93;;;5.28;;
10517;SDS011;5307;42.548;22.968;2023-05-28T03:47:31;5.30;;;4.80;;
10517;SDS011;5307;42.548;22.968;2023-05-28T03:49:58;6.22;;;4.90;;
10517;SDS011;5307;42.548;22.968;2023-05-28T03:52:25;6.00;;;4.80;;
10517;SDS011;5307;42.548;22.968;2023-05-28T03:54:53;5.45;;;4.82;;
10517;SDS011;5307;42.548;22.968;2023-05-28T03:57:20;7.38;;;5.25;;
10517;SDS011;5307;42.548;22.968;2023-05-28T03:59:48;5.20;;;4.60;;
10517;SDS011;5307;42.548;22.968;2023-05-28T04:02:15;7.28;;;4.10;;
10517;SDS011;5307;42.548;22.968;2023-05-28T04:04:43;7.80;;;5.28;;
10517;SDS011;5307;42.548;22.968;2023-05-28T04:07:10;6.35;;;4.70;;
10517;SDS011;5307;42.548;22.968;2023-05-28T04:09:37;6.75;;;5.20;;
10517;SDS011;5307;42.548;22.968;2023-05-28T04:12:04;7.75;;;4.80;;
10517;SDS011;5307;42.548;22.968;2023-05-28T04:14:31;7.60;;;5.38;;
10517;SDS011;5307;42.548;22.968;2023-05-28T04:16:59;6.10;;;5.03;;
10517;SDS011;5307;42.548;22.968;2023-05-28T04:19:26;6.82;;;5.22;;
10517;SDS011;5307;42.548;22.968;2023-05-28T04:21:53;7.05;;;5.20;;
10517;SDS011;5307;42.548;22.968;2023-05-28T04:24:19;9.10;;;5.38;;
10517;SDS011;5307;42.548;22.968;2023-05-28T04:26:46;5.80;;;5.07;;
10517;SDS011;5307;42.548;22.968;2023-05-28T04:29:13;9.70;;;5.30;;
10517;SDS011;5307;42.548;22.968;2023-05-28T04:31:41;5.18;;;4.68;;
10517;SDS011;5307;42.548;22.968;2023-05-28T04:34:10;6.22;;;5.32;;
10517;SDS011;5307;42.548;22.968;2023-05-28T04:36:40;12.20;;;5.30;;
10517;SDS011;5307;42.548;22.968;2023-05-28T04:39:06;7.63;;;5.25;;
10517;SDS011;5307;42.548;22.968;2023-05-28T04:41:34;6.03;;;5.10;;
10517;SDS011;5307;42.548;22.968;2023-05-28T04:44:00;7.70;;;5.47;;
10517;SDS011;5307;42.548;22.968;2023-05-28T04:46:28;7.65;;;5.00;;
10517;SDS011;5307;42.548;22.968;2023-05-28T04:48:55;6.65;;;5.18;;
10517;SDS011;5307;42.548;22.968;2023-05-28T04:51:24;10.30;;;4.82;;
10517;SDS011;5307;42.548;22.968;2023-05-28T04:53:51;7.80;;;6.20;;
10517;SDS011;5307;42.548;22.968;2023-05-28T04:56:18;9.65;;;6.05;;
10517;SDS011;5307;42.548;22.968;2023-05-28T04:58:45;6.75;;;5.07;;
10517;SDS011;5307;42.548;22.968;2023-05-28T05:01:13;6.15;;;4.85;;
10517;SDS011;5307;42.548;22.968;2023-05-28T05:03:40;7.20;;;5.50;;
10517;SDS011;5307;42.548;22.968;2023-05-28T05:06:07;6.88;;;4.90;;
10517;SDS011;5307;42.548;22.968;2023-05-28T05:08:35;7.50;;;4.75;;
10517;SDS011;5307;42.548;22.968;2023-05-28T05:11:02;6.95;;;5.30;;
10517;SDS011;5307;42.548;22.968;2023-05-28T05:13:29;7.90;;;5.30;;
10517;SDS011;5307;42.548;22.968;2023-05-28T05:15:56;7.05;;;5.30;;
10517;SDS011;5307;42.548;22.968;2023-05-28T05:18:23;9.90;;;5.35;;
10517;SDS011;5307;42.548;22.968;2023-05-28T05:20:50;8.30;;;5.93;;
10517;SDS011;5307;42.548;22.968;2023-05-28T05:23:16;8.45;;;5.43;;
10517;SDS011;5307;42.548;22.968;2023-05-28T05:25:44;9.75;;;5.47;;
10517;SDS011;5307;42.548;22.968;2023-05-28T05:28:11;6.55;;;5.30;;
10517;SDS011;5307;42.548;22.968;2023-05-28T05:30:38;8.27;;;4.80;;
10517;SDS011;5307;42.548;22.968;2023-05-28T05:33:05;7.22;;;5.38;;
10517;SDS011;5307;42.548;22.968;2023-05-28T05:35:32;10.38;;;5.45;;
10517;SDS011;5307;42.548;22.968;2023-05-28T05:37:58;5.10;;;4.57;;
10517;SDS011;5307;42.548;22.968;2023-05-28T05:40:25;7.05;;;5.25;;
10517;SDS011;5307;42.548;22.968;2023-05-28T05:42:54;9.70;;;5.60;;
10517;SDS011;5307;42.548;22.968;2023-05-28T05:45:22;5.90;;;4.93;;
10517;SDS011;5307;42.548;22.968;2023-05-28T05:47:49;5.68;;;4.55;;
10517;SDS011;5307;42.548;22.968;2023-05-28T05:50:16;6.70;;;4.97;;
10517;SDS011;5307;42.548;22.968;2023-05-28T05:52:43;5.97;;;5.05;;
10517;SDS011;5307;42.548;22.968;2023-05-28T05:55:09;7.72;;;5.70;;
10517;SDS011;5307;42.548;22.968;2023-05-28T05:57:37;6.45;;;4.97;;
10517;SDS011;5307;42.548;22.968;2023-05-28T06:00:06;11.60;;;5.65;;
10517;SDS011;5307;42.548;22.968;2023-05-28T06:02:35;7.50;;;5.95;;
10517;SDS011;5307;42.548;22.968;2023-05-28T06:05:02;8.05;;;5.97;;
10517;SDS011;5307;42.548;22.968;2023-05-28T06:07:30;9.57;;;7.30;;
10517;SDS011;5307;42.548;22.968;2023-05-28T06:09:57;7.10;;;5.78;;
10517;SDS011;5307;42.548;22.968;2023-05-28T06:12:24;12.32;;;6.13;;
10517;SDS011;5307;42.548;22.968;2023-05-28T06:14:51;5.60;;;4.38;;
10517;SDS011;5307;42.548;22.968;2023-05-28T06:17:19;7.90;;;5.85;;
10517;SDS011;5307;42.548;22.968;2023-05-28T06:19:47;6.40;;;5.72;;
10517;SDS011;5307;42.548;22.968;2023-05-28T06:22:15;8.98;;;5.82;;
10517;SDS011;5307;42.548;22.968;2023-05-28T06:24:41;10.43;;;6.13;;
10517;SDS011;5307;42.548;22.968;2023-05-28T06:27:09;6.65;;;5.55;;
10517;SDS011;5307;42.548;22.968;2023-05-28T06:29:36;7.28;;;5.78;;
10517;SDS011;5307;42.548;22.968;2023-05-28T06:32:02;6.68;;;5.30;;
10517;SDS011;5307;42.548;22.968;2023-05-28T06:34:31;8.40;;;5.32;;
10517;SDS011;5307;42.548;22.968;2023-05-28T06:36:58;5.72;;;5.10;;
10517;SDS011;5307;42.548;22.968;2023-05-28T06:39:24;7.90;;;5.22;;
10517;SDS011;5307;42.548;22.968;2023-05-28T06:41:51;9.80;;;5.43;;
10517;SDS011;5307;42.548;22.968;2023-05-28T06:44:18;6.80;;;4.75;;
10517;SDS011;5307;42.548;22.968;2023-05-28T06:46:45;6.78;;;5.45;;
10517;SDS011;5307;42.548;22.968;2023-05-28T06:49:12;7.88;;;5.38;;
10517;SDS011;5307;42.548;22.968;2023-05-28T06:51:40;7.75;;;5.50;;
10517;SDS011;5307;42.548;22.968;2023-05-28T06:54:07;8.00;;;5.20;;
10517;SDS011;5307;42.548;22.968;2023-05-28T06:56:33;9.40;;;6.03;;
10517;SDS011;5307;42.548;22.968;2023-05-28T06:59:00;8.25;;;5.55;;
10517;SDS011;5307;42.548;22.968;2023-05-28T07:01:27;7.93;;;5.43;;
10517;SDS011;5307;42.548;22.968;2023-05-28T07:03:55;8.07;;;6.13;;
10517;SDS011;5307;42.548;22.968;2023-05-28T07:06:22;8.52;;;5.85;;
10517;SDS011;5307;42.548;22.968;2023-05-28T07:08:50;5.53;;;4.85;;
10517;SDS011;5307;42.548;22.968;2023-05-28T07:11:18;13.02;;;5.40;;
10517;SDS011;5307;42.548;22.968;2023-05-28T07:13:45;9.38;;;5.88;;
10517;SDS011;5307;42.548;22.968;2023-05-28T07:16:12;12.85;;;5.72;;
10517;SDS011;5307;42.548;22.968;2023-05-28T07:18:38;5.47;;;4.72;;
10517;SDS011;5307;42.548;22.968;2023-05-28T07:21:05;6.50;;;4.88;;
10517;SDS011;5307;42.548;22.968;2023-05-28T07:23:32;7.35;;;5.03;;
10517;SDS011;5307;42.548;22.968;2023-05-28T07:26:00;7.55;;;5.15;;
10517;SDS011;5307;42.548;22.968;2023-05-28T07:28:27;5.85;;;5.25;;
10517;SDS011;5307;42.548;22.968;2023-05-28T07:30:54;5.82;;;4.55;;
10517;SDS011;5307;42.548;22.968;2023-05-28T07:33:21;6.20;;;4.63;;
10517;SDS011;5307;42.548;22.968;2023-05-28T07:35:48;7.30;;;4.82;;
10517;SDS011;5307;42.548;22.968;2023-05-28T07:38:15;6.05;;;5.40;;
10517;SDS011;5307;42.548;22.968;2023-05-28T07:40:42;7.10;;;4.65;;
10517;SDS011;5307;42.548;22.968;2023-05-28T07:43:10;8.38;;;4.88;;
10517;SDS011;5307;42.548;22.968;2023-05-28T07:45:36;6.63;;;4.75;;
10517;SDS011;5307;42.548;22.968;2023-05-28T07:48:03;6.50;;;5.07;;
10517;SDS011;5307;42.548;22.968;2023-05-28T07:50:30;6.53;;;4.80;;
10517;SDS011;5307;42.548;22.968;2023-05-28T07:52:57;13.88;;;5.55;;
10517;SDS011;5307;42.548;22.968;2023-05-28T07:55:24;9.25;;;5.00;;
10517;SDS011;5307;42.548;22.968;2023-05-28T07:57:50;7.43;;;4.50;;
10517;SDS011;5307;42.548;22.968;2023-05-28T08:00:19;8.85;;;4.43;;
10517;SDS011;5307;42.548;22.968;2023-05-28T08:02:45;6.82;;;5.07;;
10517;SDS011;5307;42.548;22.968;2023-05-28T08:05:14;7.25;;;5.78;;
10517;SDS011;5307;42.548;22.968;2023-05-28T08:07:41;8.90;;;5.60;;
10517;SDS011;5307;42.548;22.968;2023-05-28T08:10:08;7.72;;;5.30;;
10517;SDS011;5307;42.548;22.968;2023-05-28T08:12:35;6.85;;;5.20;;
10517;SDS011;5307;42.548;22.968;2023-05-28T08:15:02;8.52;;;6.00;;
10517;SDS011;5307;42.548;22.968;2023-05-28T08:17:31;11.60;;;7.25;;
10517;SDS011;5307;42.548;22.968;2023-05-28T08:19:58;9.05;;;6.65;;
10517;SDS011;5307;42.548;22.968;2023-05-28T08:22:26;8.25;;;5.03;;
10517;SDS011;5307;42.548;22.968;2023-05-28T08:24:52;10.02;;;4.78;;
10517;SDS011;5307;42.548;22.968;2023-05-28T08:27:19;6.85;;;3.85;;
10517;SDS011;5307;42.548;22.968;2023-05-28T08:29:46;8.23;;;4.25;;
10517;SDS011;5307;42.548;22.968;2023-05-28T08:32:13;4.65;;;3.95;;
10517;SDS011;5307;42.548;22.968;2023-05-28T08:34:41;3.75;;;3.03;;
10517;SDS011;5307;42.548;22.968;2023-05-28T08:37:08;5.38;;;3.83;;
10517;SDS011;5307;42.548;22.968;2023-05-28T08:39:36;6.05;;;3.60;;
10517;SDS011;5307;42.548;22.968;2023-05-28T08:42:03;3.72;;;3.25;;
10517;SDS011;5307;42.548;22.968;2023-05-28T08:44:30;4.18;;;3.45;;
10517;SDS011;5307;42.548;22.968;2023-05-28T08:46:57;7.43;;;3.50;;
10517;SDS011;5307;42.548;22.968;2023-05-28T08:49:28;5.10;;;3.60;;
10517;SDS011;5307;42.548;22.968;2023-05-28T08:51:59;6.47;;;3.55;;
10517;SDS011;5307;42.548;22.968;2023-05-28T08:54:28;5.03;;;3.63;;
10517;SDS011;5307;42.548;22.968;2023-05-28T08:56:55;4.47;;;3.17;;
10517;SDS011;5307;42.548;22.968;2023-05-28T08:59:22;4.03;;;3.22;;
10517;SDS011;5307;42.548;22.968;2023-05-28T09:01:49;4.95;;;3.15;;
10517;SDS011;5307;42.548;22.968;2023-05-28T09:04:17;3.38;;;3.05;;
10517;SDS011;5307;42.548;22.968;2023-05-28T09:06:44;3.17;;;2.60;;
10517;SDS011;5307;42.548;22.968;2023-05-28T09:09:12;7.47;;;3.47;;
10517;SDS011;5307;42.548;22.968;2023-05-28T09:11:39;4.45;;;3.42;;
10517;SDS011;5307;42.548;22.968;2023-05-28T09:14:08;5.32;;;3.28;;
10517;SDS011;5307;42.548;22.968;2023-05-28T09:16:39;3.50;;;3.15;;
10517;SDS011;5307;42.548;22.968;2023-05-28T09:19:07;4.10;;;3.10;;
10517;SDS011;5307;42.548;22.968;2023-05-28T09:21:34;4.80;;;3.40;;
10517;SDS011;5307;42.548;22.968;2023-05-28T09:24:03;4.63;;;2.90;;
10517;SDS011;5307;42.548;22.968;2023-05-28T09:26:32;4.05;;;3.40;;
10517;SDS011;5307;42.548;22.968;2023-05-28T09:28:59;7.28;;;3.50;;
10517;SDS011;5307;42.548;22.968;2023-05-28T09:31:29;7.57;;;3.55;;
10517;SDS011;5307;42.548;22.968;2023-05-28T09:33:58;5.13;;;2.95;;
10517;SDS011;5307;42.548;22.968;2023-05-28T09:36:28;5.30;;;2.70;;
10517;SDS011;5307;42.548;22.968;2023-05-28T09:38:55;5.97;;;2.35;;
10517;SDS011;5307;42.548;22.968;2023-05-28T09:41:22;2.55;;;2.30;;
10517;SDS011;5307;42.548;22.968;2023-05-28T09:43:56;5.25;;;2.83;;
10517;SDS011;5307;42.548;22.968;2023-05-28T09:46:29;3.80;;;2.78;;
10517;SDS011;5307;42.548;22.968;2023-05-28T09:48:56;3.97;;;3.13;;
10517;SDS011;5307;42.548;22.968;2023-05-28T09:51:25;3.83;;;2.92;;
10517;SDS011;5307;42.548;22.968;2023-05-28T09:53:55;5.03;;;3.25;;
10517;SDS011;5307;42.548;22.968;2023-05-28T09:56:23;15.82;;;2.33;;
10517;SDS011;5307;42.548;22.968;2023-05-28T09:58:57;3.85;;;2.92;;
10517;SDS011;5307;42.548;22.968;2023-05-28T10:01:25;5.75;;;2.50;;
10517;SDS011;5307;42.548;22.968;2023-05-28T10:03:58;5.93;;;2.60;;
10517;SDS011;5307;42.548;22.968;2023-05-28T10:06:28;2.55;;;2.35;;
10517;SDS011;5307;42.548;22.968;2023-05-28T10:08:58;4.22;;;2.05;;
10517;SDS011;5307;42.548;22.968;2023-05-28T10:11:29;4.72;;;2.60;;
10517;SDS011;5307;42.548;22.968;2023-05-28T10:13:58;5.38;;;2.78;;
10517;SDS011;5307;42.548;22.968;2023-05-28T10:16:26;3.90;;;3.03;;
10517;SDS011;5307;42.548;22.968;2023-05-28T10:18:53;3.50;;;2.95;;
10517;SDS011;5307;42.548;22.968;2023-05-28T10:21:22;3.58;;;2.70;;
10517;SDS011;5307;42.548;22.968;2023-05-28T10:23:50;5.38;;;3.13;;
10517;SDS011;5307;42.548;22.968;2023-05-28T10:26:18;6.82;;;3.28;;
10517;SDS011;5307;42.548;22.968;2023-05-28T10:28:52;5.10;;;3.25;;
10517;SDS011;5307;42.548;22.968;2023-05-28T10:31:22;3.72;;;2.97;;
10517;SDS011;5307;42.548;22.968;2023-05-28T10:33:49;3.22;;;2.50;;
10517;SDS011;5307;42.548;22.968;2023-05-28T10:36:16;4.18;;;2.70;;
10517;SDS011;5307;42.548;22.968;2023-05-28T10:38:44;5.57;;;3.08;;
10517;SDS011;5307;42.548;22.968;2023-05-28T10:41:17;4.45;;;2.63;;
10517;SDS011;5307;42.548;22.968;2023-05-28T10:43:45;3.47;;;2.55;;
10517;SDS011;5307;42.548;22.968;2023-05-28T10:46:15;6.35;;;2.70;;
10517;SDS011;5307;42.548;22.968;2023-05-28T10:51:46;3.45;;;2.70;;
10517;SDS011;5307;42.548;22.968;2023-05-28T10:54:21;2.40;;;1.55;;
10517;SDS011;5307;42.548;22.968;2023-05-28T10:57:08;4.53;;;2.30;;
10517;SDS011;5307;42.548;22.968;2023-05-28T10:59:36;6.10;;;2.58;;
10517;SDS011;5307;42.548;22.968;2023-05-28T11:02:09;4.13;;;2.95;;
10517;SDS011;5307;42.548;22.968;2023-05-28T11:04:38;3.97;;;3.03;;
10517;SDS011;5307;42.548;22.968;2023-05-28T11:07:06;5.55;;;3.20;;
10517;SDS011;5307;42.548;22.968;2023-05-28T11:09:33;5.18;;;3.53;;
10517;SDS011;5307;42.548;22.968;2023-05-28T11:12:01;4.68;;;2.50;;
10517;SDS011;5307;42.548;22.968;2023-05-28T11:14:34;5.10;;;3.20;;
10517;SDS011;5307;42.548;22.968;2023-05-28T11:17:09;8.35;;;3.70;;
10517;SDS011;5307;42.548;22.968;2023-05-28T11:19:41;7.35;;;3.50;;
10517;SDS011;5307;42.548;22.968;2023-05-28T11:22:09;7.60;;;3.45;;
10517;SDS011;5307;42.548;22.968;2023-05-28T11:27:32;13.98;;;9.93;;
10517;SDS011;5307;42.548;22.968;2023-05-28T11:30:00;6.20;;;3.70;;
10517;SDS011;5307;42.548;22.968;2023-05-28T11:32:28;4.35;;;3.90;;
10517;SDS011;5307;42.548;22.968;2023-05-28T11:35:00;4.30;;;3.40;;
10517;SDS011;5307;42.548;22.968;2023-05-28T11:37:28;5.80;;;3.70;;
10517;SDS011;5307;42.548;22.968;2023-05-28T11:39:57;6.20;;;3.70;;
10517;SDS011;5307;42.548;22.968;2023-05-28T11:42:26;3.83;;;3.42;;
10517;SDS011;5307;42.548;22.968;2023-05-28T11:44:53;11.75;;;3.67;;
10517;SDS011;5307;42.548;22.968;2023-05-28T11:47:21;4.15;;;3.40;;
10517;SDS011;5307;42.548;22.968;2023-05-28T11:49:50;4.13;;;3.55;;
10517;SDS011;5307;42.548;22.968;2023-05-28T11:52:19;4.93;;;3.72;;
10517;SDS011;5307;42.548;22.968;2023-05-28T11:54:52;3.97;;;3.58;;
10517;SDS011;5307;42.548;22.968;2023-05-28T11:57:20;6.40;;;3.97;;
10517;SDS011;5307;42.548;22.968;2023-05-28T11:59:55;5.32;;;4.35;;
10517;SDS011;5307;42.548;22.968;2023-05-28T12:02:24;5.00;;;3.88;;
10517;SDS011;5307;42.548;22.968;2023-05-28T12:05:01;3.97;;;3.58;;
10517;SDS011;5307;42.548;22.968;2023-05-28T12:07:31;4.82;;;4.03;;
10517;SDS011;5307;42.548;22.968;2023-05-28T12:10:05;17.67;;;8.10;;
10517;SDS011;5307;42.548;22.968;2023-05-28T12:12:33;5.20;;;3.13;;
10517;SDS011;5307;42.548;22.968;2023-05-28T12:15:01;4.38;;;3.92;;
10517;SDS011;5307;42.548;22.968;2023-05-28T12:17:33;7.00;;;4.32;;
10517;SDS011;5307;42.548;22.968;2023-05-28T12:20:02;4.70;;;4.20;;
10517;SDS011;5307;42.548;22.968;2023-05-28T12:22:32;6.18;;;4.22;;
10517;SDS011;5307;42.548;22.968;2023-05-28T12:24:58;7.50;;;4.53;;
10517;SDS011;5307;42.548;22.968;2023-05-28T12:27:27;3.53;;;3.20;;
10517;SDS011;5307;42.548;22.968;2023-05-28T12:29:54;9.98;;;4.47;;
10517;SDS011;5307;42.548;22.968;2023-05-28T12:32:20;9.02;;;5.60;;
10517;SDS011;5307;42.548;22.968;2023-05-28T12:34:47;7.72;;;4.15;;
10517;SDS011;5307;42.548;22.968;2023-05-28T12:37:14;8.45;;;4.45;;
10517;SDS011;5307;42.548;22.968;2023-05-28T12:39:43;11.07;;;6.07;;
10517;SDS011;5307;42.548;22.968;2023-05-28T12:42:09;5.53;;;4.60;;
10517;SDS011;5307;42.548;22.968;2023-05-28T12:44:36;8.15;;;4.80;;
10517;SDS011;5307;42.548;22.968;2023-05-28T12:47:03;10.27;;;5.18;;
10517;SDS011;5307;42.548;22.968;2023-05-28T12:49:30;7.90;;;5.43;;
10517;SDS011;5307;42.548;22.968;2023-05-28T12:51:58;6.03;;;5.18;;
10517;SDS011;5307;42.548;22.968;2023-05-28T12:54:25;7.93;;;5.68;;
10517;SDS011;5307;42.548;22.968;2023-05-28T12:56:53;11.20;;;6.05;;
10517;SDS011;5307;42.548;22.968;2023-05-28T12:59:20;6.80;;;5.50;;
10517;SDS011;5307;42.548;22.968;2023-05-28T13:01:47;6.05;;;4.20;;
10517;SDS011;5307;42.548;22.968;2023-05-28T13:04:15;6.88;;;4.38;;
10517;SDS011;5307;42.548;22.968;2023-05-28T13:06:41;8.18;;;4.65;;
10517;SDS011;5307;42.548;22.968;2023-05-28T13:09:08;7.78;;;5.78;;
10517;SDS011;5307;42.548;22.968;2023-05-28T13:11:37;4.43;;;3.75;;
10517;SDS011;5307;42.548;22.968;2023-05-28T13:14:06;10.77;;;5.93;;
10517;SDS011;5307;42.548;22.968;2023-05-28T13:16:33;10.52;;;6.05;;
10517;SDS011;5307;42.548;22.968;2023-05-28T13:19:00;7.32;;;5.70;;
10517;SDS011;5307;42.548;22.968;2023-05-28T13:21:28;6.22;;;5.15;;
10517;SDS011;5307;42.548;22.968;2023-05-28T13:24:02;7.10;;;4.72;;
10517;SDS011;5307;42.548;22.968;2023-05-28T13:26:29;9.02;;;6.20;;
10517;SDS011;5307;42.548;22.968;2023-05-28T13:28:58;11.73;;;5.47;;
10517;SDS011;5307;42.548;22.968;2023-05-28T13:31:27;8.00;;;5.68;;
10517;SDS011;5307;42.548;22.968;2023-05-28T13:33:53;12.10;;;5.80;;
10517;SDS011;5307;42.548;22.968;2023-05-28T13:36:20;5.95;;;4.70;;
10517;SDS011;5307;42.548;22.968;2023-05-28T13:38:47;5.40;;;4.25;;
10517;SDS011;5307;42.548;22.968;2023-05-28T13:41:14;5.47;;;4.32;;
10517;SDS011;5307;42.548;22.968;2023-05-28T13:43:42;5.40;;;4.63;;
10517;SDS011;5307;42.548;22.968;2023-05-28T13:46:09;13.45;;;5.65;;
10517;SDS011;5307;42.548;22.968;2023-05-28T13:48:37;7.32;;;5.70;;
10517;SDS011;5307;42.548;22.968;2023-05-28T13:51:04;10.90;;;5.47;;
10517;SDS011;5307;42.548;22.968;2023-05-28T13:53:33;6.05;;;4.43;;
10517;SDS011;5307;42.548;22.968;2023-05-28T13:56:00;8.45;;;4.82;;
10517;SDS011;5307;42.548;22.968;2023-05-28T13:58:27;7.93;;;4.85;;
10517;SDS011;5307;42.548;22.968;2023-05-28T14:00:54;12.45;;;5.35;;
10517;SDS011;5307;42.548;22.968;2023-05-28T14:03:20;4.88;;;4.05;;
10517;SDS011;5307;42.548;22.968;2023-05-28T14:05:49;4.18;;;3.78;;
10517;SDS011;5307;42.548;22.968;2023-05-28T14:08:15;7.28;;;4.40;;
10517;SDS011;5307;42.548;22.968;2023-05-28T14:10:42;4.35;;;3.95;;
10517;SDS011;5307;42.548;22.968;2023-05-28T14:13:10;4.38;;;3.47;;
10517;SDS011;5307;42.548;22.968;2023-05-28T14:15:37;6.05;;;4.18;;
10517;SDS011;5307;42.548;22.968;2023-05-28T14:18:03;3.53;;;3.15;;
10517;SDS011;5307;42.548;22.968;2023-05-28T14:20:31;5.63;;;4.40;;
10517;SDS011;5307;42.548;22.968;2023-05-28T14:23:01;7.35;;;4.45;;
10517;SDS011;5307;42.548;22.968;2023-05-28T14:25:28;5.88;;;3.75;;
10517;SDS011;5307;42.548;22.968;2023-05-28T14:27:55;4.05;;;3.72;;
10517;SDS011;5307;42.548;22.968;2023-05-28T14:30:22;6.10;;;3.75;;
10517;SDS011;5307;42.548;22.968;2023-05-28T14:32:49;9.13;;;5.43;;
10517;SDS011;5307;42.548;22.968;2023-05-28T14:35:16;8.10;;;4.65;;
10517;SDS011;5307;42.548;22.968;2023-05-28T14:37:44;5.82;;;4.88;;
10517;SDS011;5307;42.548;22.968;2023-05-28T14:40:12;6.35;;;4.15;;
10517;SDS011;5307;42.548;22.968;2023-05-28T14:42:39;5.15;;;4.63;;
10517;SDS011;5307;42.548;22.968;2023-05-28T14:45:06;6.40;;;4.75;;
10517;SDS011;5307;42.548;22.968;2023-05-28T14:47:34;8.00;;;5.35;;
10517;SDS011;5307;42.548;22.968;2023-05-28T14:50:00;6.07;;;4.80;;
10517;SDS011;5307;42.548;22.968;2023-05-28T14:52:28;4.13;;;3.72;;
10517;SDS011;5307;42.548;22.968;2023-05-28T14:54:56;7.10;;;4.93;;